createdAt,value
2019-04-06T00:02:32.948Z,99664.69
2019-04-06T00:05:01.417Z,99657.95
2019-04-06T00:07:29.900Z,99648.64
2019-04-06T00:09:58.394Z,99649.09
2019-04-06T00:12:26.866Z,99658.03
2019-04-06T00:14:55.424Z,99657.14
2019-04-06T00:17:23.889Z,99657.59
2019-04-06T00:19:52.359Z,99664.88
2019-04-06T00:22:20.843Z,99662.33
2019-04-06T00:24:49.349Z,99665.32
2019-04-06T00:27:17.848Z,99661.52
2019-04-06T00:29:46.322Z,99658.19
2019-04-06T00:32:28.641Z,99657.75
2019-04-06T00:34:57.111Z,99661.56
2019-04-06T00:37:25.583Z,99671.28
2019-04-06T00:39:54.109Z,99668.84
2019-04-06T00:42:22.624Z,99673.53
2019-04-06T00:44:51.105Z,99669.28
2019-04-06T00:47:19.588Z,99679.04
2019-04-06T00:49:48.096Z,99677.38
2019-04-06T00:52:16.585Z,99674.11
2019-04-06T00:54:45.065Z,99673.27
2019-04-06T00:57:13.551Z,99666.20
2019-04-06T00:59:42.039Z,99669.52
2019-04-06T01:02:10.838Z,99675.86
2019-04-06T01:04:39.343Z,99681.72
2019-04-06T01:07:07.847Z,99680.89
2019-04-06T01:09:36.390Z,99672.87
2019-04-06T01:12:04.962Z,99671.62
2019-04-06T01:14:33.442Z,99666.15
2019-04-06T01:17:01.928Z,99660.72
2019-04-06T01:19:30.483Z,99659.41
2019-04-06T01:21:58.992Z,99663.30
2019-04-06T01:24:27.576Z,99669.16
2019-04-06T01:26:56.038Z,99681.41
2019-04-06T01:29:24.555Z,99680.14
2019-04-06T01:31:53.016Z,99678.09
2019-04-06T01:34:21.511Z,99673.48
2019-04-06T01:36:50.392Z,99667.58
2019-04-06T01:39:18.880Z,99676.06
2019-04-06T01:41:47.363Z,99674.43
2019-04-06T01:44:15.909Z,99679.47
2019-04-06T01:46:44.411Z,99685.37
2019-04-06T01:49:12.908Z,99679.03
2019-04-06T01:51:41.423Z,99670.70
2019-04-06T01:54:09.911Z,99672.80
2019-04-06T01:56:38.355Z,99664.83
2019-04-06T01:59:06.919Z,99674.13
2019-04-06T02:01:52.080Z,99665.66
2019-04-06T02:04:20.561Z,99659.76
2019-04-06T02:06:49.063Z,99662.73
2019-04-06T02:09:17.559Z,99656.39
2019-04-06T02:11:46.020Z,99653.83
2019-04-06T02:14:14.474Z,99651.32
2019-04-06T02:16:42.957Z,99662.73
2019-04-06T02:19:12.252Z,99655.12
2019-04-06T02:21:40.779Z,99643.35
2019-04-06T02:24:09.250Z,99639.15
2019-04-06T02:26:37.784Z,99635.31
2019-04-06T02:29:06.287Z,99647.12
2019-04-06T02:31:36.509Z,99658.98
2019-04-06T02:34:24.332Z,99656.45
2019-04-06T02:36:56.987Z,99662.78
2019-04-06T02:39:39.089Z,99665.41
2019-04-06T02:42:09.341Z,99658.64
2019-04-06T02:44:37.839Z,99662.06
2019-04-06T02:47:06.430Z,99665.48
2019-04-06T02:49:34.919Z,99665.50
2019-04-06T02:52:03.381Z,99674.36
2019-04-06T02:54:31.845Z,99654.12
2019-04-06T02:57:00.370Z,99656.63
2019-04-06T02:59:28.954Z,99662.59
2019-04-06T03:01:57.479Z,99658.75
2019-04-06T03:04:25.928Z,99650.77
2019-04-06T03:06:54.468Z,99646.61
2019-04-06T03:09:23.579Z,99649.53
2019-04-06T03:11:52.030Z,99642.34
2019-04-06T03:14:20.474Z,99647.81
2019-04-06T03:16:48.982Z,99647.79
2019-04-06T03:19:17.657Z,99647.41
2019-04-06T03:21:46.204Z,99649.52
2019-04-06T03:24:14.681Z,99645.33
2019-04-06T03:26:43.140Z,99653.73
2019-04-06T03:29:11.626Z,99656.30
2019-04-06T03:31:40.422Z,99649.14
2019-04-06T03:34:09.668Z,99649.59
2019-04-06T03:36:38.354Z,99641.97
2019-04-06T03:39:07.297Z,99647.46
2019-04-06T03:41:35.840Z,99643.23
2019-04-06T03:44:04.316Z,99639.44
2019-04-06T03:46:32.775Z,99639.01
2019-04-06T03:49:01.346Z,99641.98
2019-04-06T03:51:29.810Z,99644.52
2019-04-06T03:53:58.329Z,99632.72
2019-04-06T03:56:26.773Z,99634.42
2019-04-06T03:58:55.405Z,99635.70
2019-04-06T04:01:23.855Z,99635.68
2019-04-06T04:03:52.375Z,99638.62
2019-04-06T04:06:20.833Z,99644.95
2019-04-06T04:08:49.303Z,99638.64
2019-04-06T04:11:17.753Z,99639.04
2019-04-06T04:13:46.222Z,99637.40
2019-04-06T04:16:14.648Z,99632.71
2019-04-06T04:18:43.061Z,99624.28
2019-04-06T04:21:11.659Z,99633.56
2019-04-06T04:23:40.152Z,99631.08
2019-04-06T04:26:08.886Z,99617.57
2019-04-06T04:28:37.697Z,99623.46
2019-04-06T04:31:06.214Z,99623.05
2019-04-06T04:33:34.644Z,99627.68
2019-04-06T04:36:03.110Z,99621.36
2019-04-06T04:38:31.791Z,99627.69
2019-04-06T04:41:00.508Z,99631.06
2019-04-06T04:43:28.984Z,99620.93
2019-04-06T04:45:58.233Z,99627.31
2019-04-06T04:48:26.720Z,99636.59
2019-04-06T04:50:55.147Z,99644.62
2019-04-06T04:53:23.590Z,99633.66
2019-04-06T04:55:52.228Z,99642.48
2019-04-06T04:58:20.663Z,99646.30
2019-04-06T05:00:49.433Z,99642.06
2019-04-06T05:03:17.926Z,99639.95
2019-04-06T05:05:46.347Z,99648.39
2019-04-06T05:08:14.802Z,99651.80
2019-04-06T05:10:44.795Z,99647.97
2019-04-06T05:13:13.501Z,99653.45
2019-04-06T05:16:11.822Z,99657.25
2019-04-06T05:18:41.974Z,99650.52
2019-04-06T05:21:11.925Z,99649.66
2019-04-06T05:23:40.418Z,99650.52
2019-04-06T05:26:09.239Z,99647.14
2019-04-06T05:28:37.718Z,99653.45
2019-04-06T05:31:06.244Z,99655.55
2019-04-06T05:33:34.821Z,99656.81
2019-04-06T05:36:03.546Z,99652.59
2019-04-06T05:38:34.418Z,99647.50
2019-04-06T05:41:03.250Z,99654.66
2019-04-06T05:43:31.930Z,99650.86
2019-04-06T05:46:00.483Z,99647.46
2019-04-06T05:48:28.949Z,99649.14
2019-04-06T05:50:57.651Z,99650.36
2019-04-06T05:53:26.614Z,99652.91
2019-04-06T05:55:55.100Z,99650.77
2019-04-06T05:58:23.544Z,99654.58
2019-04-06T06:00:52.169Z,99663.80
2019-04-06T06:03:20.871Z,99657.85
2019-04-06T06:05:49.578Z,99665.05
2019-04-06T06:08:18.095Z,99660.77
2019-04-06T06:10:47.433Z,99661.58
2019-04-06T06:13:16.378Z,99661.55
2019-04-06T06:15:46.401Z,99653.45
2019-04-06T06:18:25.423Z,99657.66
2019-04-06T06:20:45.212Z,99663.46
2019-04-06T06:23:15.850Z,99659.66
2019-04-06T06:25:45.845Z,99658.35
2019-04-06T06:28:15.556Z,99659.25
2019-04-06T06:30:44.402Z,99665.05
2019-04-06T06:33:12.943Z,99662.39
2019-04-06T06:35:41.471Z,99663.92
2019-04-06T06:38:09.933Z,99653.72
2019-04-06T06:40:38.389Z,99651.86
2019-04-06T06:43:06.881Z,99656.88
2019-04-06T06:45:35.475Z,99656.32
2019-04-06T06:48:04.133Z,99656.69
2019-04-06T06:50:34.523Z,99660.38
2019-04-06T06:53:02.786Z,99664.88
2019-04-06T06:55:31.424Z,99668.30
2019-04-06T06:57:59.872Z,99667.55
2019-04-06T07:00:28.312Z,99666.52
2019-04-06T07:02:56.793Z,99663.43
2019-04-06T07:05:25.314Z,99667.46
2019-04-06T07:07:53.752Z,99665.78
2019-04-06T07:10:22.257Z,99668.38
2019-04-06T07:12:50.757Z,99677.19
2019-04-06T07:15:19.285Z,99671.34
2019-04-06T07:17:47.706Z,99667.77
2019-04-06T07:20:16.889Z,99670.06
2019-04-06T07:22:45.706Z,99676.32
2019-04-06T07:25:15.010Z,99682.16
2019-04-06T07:27:43.445Z,99677.07
2019-04-06T07:30:12.839Z,99679.77
2019-04-06T07:32:41.430Z,99685.97
2019-04-06T07:35:10.064Z,99686.92
2019-04-06T07:37:38.679Z,99685.02
2019-04-06T07:40:10.387Z,99686.52
2019-04-06T07:42:38.956Z,99685.38
2019-04-06T07:45:09.019Z,99695.66
2019-04-06T07:47:37.547Z,99689.06
2019-04-06T07:50:07.210Z,99701.45
2019-04-06T07:52:36.314Z,99700.30
2019-04-06T07:55:08.536Z,99702.89
2019-04-06T07:57:37.015Z,99704.89
2019-04-06T08:00:09.358Z,99714.77
2019-04-06T08:02:37.811Z,99706.14
2019-04-06T08:05:07.291Z,99707.51
2019-04-06T08:07:35.846Z,99702.35
2019-04-06T08:10:05.374Z,99698.78
2019-04-06T08:12:33.806Z,99709.97
2019-04-06T08:15:02.340Z,99701.98
2019-04-06T08:17:30.823Z,99699.38
2019-04-06T08:19:59.406Z,99707.16
2019-04-06T08:22:27.878Z,99701.91
2019-04-06T08:24:56.327Z,99700.28
2019-04-06T08:27:24.770Z,99704.02
2019-04-06T08:29:53.220Z,99703.97
2019-04-06T08:32:21.655Z,99708.09
2019-04-06T08:34:50.262Z,99711.84
2019-04-06T08:37:18.861Z,99708.33
2019-04-06T08:39:47.734Z,99708.56
2019-04-06T08:42:16.359Z,99711.84
2019-04-06T08:44:44.728Z,99714.22
2019-04-06T08:47:13.176Z,99710.40
2019-04-06T08:49:41.628Z,99711.02
2019-04-06T08:52:11.611Z,99712.16
2019-04-06T08:54:40.555Z,99716.75
2019-04-06T08:57:09.410Z,99707.78
2019-04-06T08:59:37.998Z,99715.59
2019-04-06T09:02:06.807Z,99722.19
2019-04-06T09:04:35.282Z,99716.06
2019-04-06T09:07:03.731Z,99710.05
2019-04-06T09:09:32.212Z,99715.68
2019-04-06T09:12:00.749Z,99715.06
2019-04-06T09:14:29.488Z,99712.54
2019-04-06T09:16:58.167Z,99709.08
2019-04-06T09:19:26.613Z,99707.61
2019-04-06T09:21:55.075Z,99702.20
2019-04-06T09:24:23.563Z,99701.42
2019-04-06T09:26:52.026Z,99702.65
2019-04-06T09:29:24.126Z,99704.84
2019-04-06T09:31:50.634Z,99699.73
2019-04-06T09:34:19.118Z,99701.47
2019-04-06T09:36:47.567Z,99698.06
2019-04-06T09:39:16.184Z,99697.51
2019-04-06T09:41:44.919Z,99694.33
2019-04-06T09:44:15.063Z,99688.53
2019-04-06T09:47:00.406Z,99690.14
2019-04-06T09:49:30.498Z,99686.22
2019-04-06T09:52:16.634Z,99693.45
2019-04-06T09:55:05.133Z,99682.99
2019-04-06T09:57:38.153Z,99681.09
2019-04-06T10:00:15.867Z,99672.53
2019-04-06T10:02:45.977Z,99677.52
2019-04-06T10:05:18.752Z,99669.70
2019-04-06T10:07:48.913Z,99668.94
2019-04-06T10:10:34.099Z,99669.05
2019-04-06T10:13:06.725Z,99664.71
2019-04-06T10:15:43.042Z,99663.03
2019-04-06T10:18:29.511Z,99663.29
2019-04-06T10:21:02.353Z,99662.42
2019-04-06T10:23:38.136Z,99663.23
2019-04-06T10:26:17.053Z,99661.33
2019-04-06T10:28:52.918Z,99664.38
2019-04-06T10:31:37.680Z,99660.80
2019-04-06T10:34:13.895Z,99656.23
2019-04-06T10:36:47.002Z,99650.91
2019-04-06T10:39:19.642Z,99652.27
2019-04-06T10:42:04.985Z,99652.44
2019-04-06T10:44:50.307Z,99643.35
2019-04-06T10:47:35.237Z,99654.23
2019-04-06T10:50:06.213Z,99653.38
2019-04-06T10:52:48.154Z,99650.83
2019-04-06T10:55:29.950Z,99643.27
2019-04-06T10:58:00.248Z,99647.08
2019-04-06T11:00:32.893Z,99643.86
2019-04-06T11:03:02.979Z,99646.66
2019-04-06T11:05:36.376Z,99650.06
2019-04-06T11:08:24.903Z,99650.70
2019-04-06T11:11:02.468Z,99644.08
2019-04-06T11:13:32.862Z,99646.27
2019-04-06T11:16:19.166Z,99643.94
2019-04-06T11:18:55.095Z,99645.52
2019-04-06T11:21:25.429Z,99645.69
2019-04-06T11:24:04.731Z,99636.50
2019-04-06T11:26:38.070Z,99636.35
2019-04-06T11:29:17.222Z,99633.81
2019-04-06T11:31:56.571Z,99627.27
2019-04-06T11:34:26.864Z,99629.74
2019-04-06T11:37:15.009Z,99628.84
2019-04-06T11:39:47.771Z,99631.30
2019-04-06T11:42:29.564Z,99632.11
2019-04-06T11:44:59.856Z,99623.75
2019-04-06T11:47:29.979Z,99622.97
2019-04-06T11:50:00.138Z,99623.53
2019-04-06T11:52:30.240Z,99619.45
2019-04-06T11:55:02.861Z,99625.89
2019-04-06T11:57:49.341Z,99623.30
2019-04-06T12:00:35.751Z,99629.02
2019-04-06T12:03:06.207Z,99627.45
2019-04-06T12:05:52.417Z,99626.23
2019-04-06T12:08:22.573Z,99617.86
2019-04-06T12:10:52.714Z,99623.62
2019-04-06T12:13:25.789Z,99619.15
2019-04-06T12:15:55.875Z,99619.08
2019-04-06T12:18:25.955Z,99614.00
2019-04-06T12:21:10.791Z,99612.69
2019-04-06T12:23:57.040Z,99609.95
2019-04-06T12:26:36.186Z,99612.34
2019-04-06T12:29:21.213Z,99606.00
2019-04-06T12:32:05.959Z,99601.57
2019-04-06T12:34:36.055Z,99600.09
2019-04-06T12:37:20.913Z,99594.83
2019-04-06T12:40:03.528Z,99586.27
2019-04-06T12:42:36.372Z,99590.41
2019-04-06T12:45:23.723Z,99588.33
2019-04-06T12:48:10.247Z,99582.66
2019-04-06T12:50:42.736Z,99590.14
2019-04-06T12:53:12.826Z,99579.80
2019-04-06T12:55:45.709Z,99577.42
2019-04-06T12:58:15.798Z,99576.20
2019-04-06T13:00:52.929Z,99571.00
2019-04-06T13:03:23.265Z,99569.06
2019-04-06T13:06:02.262Z,99569.57
2019-04-06T13:08:32.788Z,99569.19
2019-04-06T13:11:19.827Z,99565.66
2019-04-06T13:13:49.888Z,99560.59
2019-04-06T13:16:22.758Z,99560.95
2019-04-06T13:19:09.253Z,99565.53
2019-04-06T13:21:55.619Z,99562.98
2019-04-06T13:24:41.960Z,99561.99
2019-04-06T13:27:24.223Z,99557.84
2019-04-06T13:30:00.588Z,99556.90
2019-04-06T13:32:42.713Z,99547.00
2019-04-06T13:35:18.493Z,99549.08
2019-04-06T13:38:03.805Z,99546.66
2019-04-06T13:40:50.298Z,99547.19
2019-04-06T13:43:20.363Z,99547.23
2019-04-06T13:45:50.474Z,99538.32
2019-04-06T13:48:23.337Z,99540.91
2019-04-06T13:51:11.544Z,99537.88
2019-04-06T13:54:00.089Z,99537.66
2019-04-06T13:56:33.160Z,99539.19
2019-04-06T13:59:08.688Z,99533.95
2019-04-06T14:01:41.675Z,99532.73
2019-04-06T14:04:14.513Z,99528.82
2019-04-06T14:06:47.304Z,99525.66
2019-04-06T14:09:17.647Z,99528.66
2019-04-06T14:11:51.013Z,99525.06
2019-04-06T14:14:21.076Z,99526.23
2019-04-06T14:16:53.579Z,99521.33
2019-04-06T14:19:26.640Z,99520.75
2019-04-06T14:22:11.983Z,99518.44
2019-04-06T14:25:00.481Z,99516.28
2019-04-06T14:27:39.072Z,99513.53
2019-04-06T14:30:10.496Z,99507.75
2019-04-06T14:32:40.683Z,99514.77
2019-04-06T14:35:21.996Z,99510.16
2019-04-06T14:37:52.454Z,99512.95
2019-04-06T14:40:40.317Z,99505.71
2019-04-06T14:43:21.276Z,99509.61
2019-04-06T14:46:04.507Z,99509.61
2019-04-06T14:48:45.360Z,99508.11
2019-04-06T14:51:16.392Z,99504.86
2019-04-06T14:53:55.049Z,99512.87
2019-04-06T14:56:25.440Z,99512.87
2019-04-06T14:58:58.389Z,99499.72
2019-04-06T15:01:45.270Z,99499.72
2019-04-06T15:04:22.681Z,99505.53
2019-04-06T15:06:53.873Z,99501.48
2019-04-06T15:09:33.179Z,99501.48
2019-04-06T15:12:12.173Z,99498.31
2019-04-06T15:14:47.478Z,99501.05
2019-04-06T15:17:20.926Z,99494.36
2019-04-06T15:19:51.023Z,99499.75
2019-04-06T15:22:40.082Z,99495.66
2019-04-06T15:25:22.599Z,99491.53
2019-04-06T15:27:58.404Z,99496.25
2019-04-06T15:30:34.231Z,99496.67
2019-04-06T15:33:20.949Z,99495.77
2019-04-06T15:36:02.841Z,99497.11
2019-04-06T15:38:40.925Z,99494.33
2019-04-06T15:41:11.231Z,99494.33
2019-04-06T15:43:48.962Z,99498.17
2019-04-06T15:46:25.469Z,99495.19
2019-04-06T15:48:55.702Z,99490.23
2019-04-06T15:51:41.901Z,99490.23
2019-04-06T15:54:20.390Z,99488.95
2019-04-06T15:57:05.696Z,99492.25
2019-04-06T15:59:37.396Z,99493.27
2019-04-06T16:02:13.654Z,99494.42
2019-04-06T16:04:49.800Z,99498.22
2019-04-06T16:07:37.664Z,99498.22
2019-04-06T16:10:21.244Z,99495.00
2019-04-06T16:12:51.689Z,99494.90
2019-04-06T16:15:39.817Z,99478.11
2019-04-06T16:18:25.373Z,99478.11
2019-04-06T16:20:59.175Z,99487.77
2019-04-06T16:23:29.870Z,99488.02
2019-04-06T16:26:03.311Z,99486.77
2019-04-06T16:28:36.319Z,99488.78
2019-04-06T16:31:12.925Z,99488.17
2019-04-06T16:33:46.362Z,99484.56
2019-04-06T16:36:19.840Z,99487.59
2019-04-06T16:38:52.693Z,99484.71
2019-04-06T16:41:41.154Z,99484.08
2019-04-06T16:44:11.987Z,99486.02
2019-04-06T16:46:42.553Z,99479.22
2019-04-06T16:49:22.918Z,99478.42
2019-04-06T16:52:10.073Z,99478.42
2019-04-06T16:54:43.720Z,99478.81
2019-04-06T16:57:30.885Z,99478.81
2019-04-06T17:00:01.335Z,99480.20
2019-04-06T17:02:50.842Z,99478.52
2019-04-06T17:05:37.615Z,99485.01
2019-04-06T17:08:12.075Z,99482.95
2019-04-06T17:10:43.062Z,99485.58
2019-04-06T17:13:22.440Z,99490.20
2019-04-06T17:15:56.245Z,99488.64
2019-04-06T17:18:42.400Z,99488.77
2019-04-06T17:21:19.291Z,99488.95
2019-04-06T17:24:05.770Z,99490.63
2019-04-06T17:26:35.900Z,99485.29
2019-04-06T17:29:16.004Z,99474.34
2019-04-06T17:31:49.768Z,99483.99
2019-04-06T17:34:36.205Z,99477.53
2019-04-06T17:37:06.560Z,99476.55
2019-04-06T17:39:42.766Z,99474.89
2019-04-06T17:42:26.097Z,99475.61
2019-04-06T17:45:10.383Z,99479.28
2019-04-06T17:47:56.911Z,99481.19
2019-04-06T17:50:27.193Z,99481.05
2019-04-06T17:53:01.734Z,99481.16
2019-04-06T17:55:49.440Z,99483.83
2019-04-06T17:58:19.698Z,99480.98
2019-04-06T18:00:51.550Z,99486.72
2019-04-06T18:03:27.693Z,99486.45
2019-04-06T18:06:14.123Z,99489.80
2019-04-06T18:08:53.282Z,99507.49
2019-04-06T18:11:24.194Z,99509.82
2019-04-06T18:13:54.171Z,99506.55
2019-04-06T18:16:24.339Z,99519.23
2019-04-06T18:18:53.115Z,99519.06
2019-04-06T18:21:22.257Z,99519.83
2019-04-06T18:23:51.250Z,99528.34
2019-04-06T18:26:20.443Z,99524.48
2019-04-06T18:28:49.332Z,99524.30
2019-04-06T18:31:22.648Z,99529.22
2019-04-06T18:33:51.188Z,99520.27
2019-04-06T18:36:21.968Z,99517.39
2019-04-06T18:38:54.977Z,99523.50
2019-04-06T18:41:23.950Z,99524.27
2019-04-06T18:43:53.495Z,99524.08
2019-04-06T18:46:22.534Z,99526.55
2019-04-06T18:48:55.164Z,99522.38
2019-04-06T18:51:24.645Z,99526.11
2019-04-06T18:53:53.706Z,99523.98
2019-04-06T18:56:25.455Z,99525.08
2019-04-06T18:58:54.120Z,99521.22
2019-04-06T19:01:22.956Z,99522.41
2019-04-06T19:03:51.789Z,99525.44
2019-04-06T19:06:20.384Z,99531.44
2019-04-06T19:08:48.815Z,99529.70
2019-04-06T19:11:17.506Z,99530.15
2019-04-06T19:13:46.744Z,99520.83
2019-04-06T19:16:17.255Z,99528.20
2019-04-06T19:18:46.671Z,99524.67
2019-04-06T19:21:15.528Z,99531.13
2019-04-06T19:23:44.053Z,99525.06
2019-04-06T19:26:12.859Z,99526.98
2019-04-06T19:28:42.284Z,99533.99
2019-04-06T19:31:12.563Z,99530.94
2019-04-06T19:33:42.417Z,99530.50
2019-04-06T19:36:11.680Z,99526.50
2019-04-06T19:38:40.395Z,99523.05
2019-04-06T19:41:09.271Z,99524.12
2019-04-06T19:43:41.024Z,99522.81
2019-04-06T19:46:09.528Z,99529.96
2019-04-06T19:48:40.613Z,99527.64
2019-04-06T19:51:08.955Z,99525.50
2019-04-06T19:53:39.119Z,99523.80
2019-04-06T19:56:07.825Z,99521.08
2019-04-06T19:58:37.092Z,99523.16
2019-04-06T20:01:05.811Z,99522.05
2019-04-06T20:03:37.358Z,99521.24
2019-04-06T20:06:04.769Z,99510.34
2019-04-06T20:08:33.378Z,99517.52
2019-04-06T20:11:01.988Z,99515.47
2019-04-06T20:13:30.719Z,99524.94
2019-04-06T20:15:59.885Z,99522.31
2019-04-06T20:18:28.977Z,99519.45
2019-04-06T20:20:57.798Z,99517.26
2019-04-06T20:23:26.657Z,99510.77
2019-04-06T20:25:56.760Z,99514.24
2019-04-06T20:28:25.480Z,99507.97
2019-04-06T20:30:54.477Z,99508.06
2019-04-06T20:33:23.325Z,99507.02
2019-04-06T20:35:52.126Z,99503.85
2019-04-06T20:38:20.905Z,99513.72
2019-04-06T20:40:50.864Z,99509.00
2019-04-06T20:43:19.762Z,99506.90
2019-04-06T20:45:48.876Z,99507.36
2019-04-06T20:48:17.471Z,99501.69
2019-04-06T20:50:46.120Z,99507.50
2019-04-06T20:53:15.292Z,99507.44
2019-04-06T20:55:43.761Z,99512.75
2019-04-06T20:58:12.246Z,99514.70
2019-04-06T21:00:40.670Z,99513.57
2019-04-06T21:03:09.633Z,99512.61
2019-04-06T21:05:38.337Z,99508.05
2019-04-06T21:08:07.374Z,99504.11
2019-04-06T21:10:36.259Z,99510.09
2019-04-06T21:13:05.431Z,99515.92
2019-04-06T21:15:34.135Z,99517.95
2019-04-06T21:18:02.741Z,99508.55
2019-04-06T21:20:31.471Z,99516.42
2019-04-06T21:23:00.149Z,99517.11
2019-04-06T21:25:28.620Z,99515.05
2019-04-06T21:27:57.806Z,99514.11
2019-04-06T21:30:26.645Z,99512.52
2019-04-06T21:32:55.451Z,99513.17
2019-04-06T21:35:23.973Z,99509.22
2019-04-06T21:37:52.852Z,99507.69
2019-04-06T21:40:21.564Z,99507.96
2019-04-06T21:42:50.141Z,99504.63
2019-04-06T21:45:19.611Z,99506.13
2019-04-06T21:47:49.494Z,99507.05
2019-04-06T21:50:18.149Z,99508.75
2019-04-06T21:52:49.186Z,99504.16
2019-04-06T21:55:16.955Z,99507.16
2019-04-06T21:57:45.658Z,99508.54
2019-04-06T22:00:16.661Z,99506.34
2019-04-06T22:02:45.898Z,99507.01
2019-04-06T22:05:17.123Z,99514.98
2019-04-06T22:07:49.845Z,99518.13
2019-04-06T22:10:17.256Z,99516.75
2019-04-06T22:12:46.061Z,99511.35
2019-04-06T22:15:16.198Z,99507.24
2019-04-06T22:17:45.704Z,99509.88
2019-04-06T22:20:14.962Z,99510.91
2019-04-06T22:22:43.482Z,99511.36
2019-04-06T22:25:12.198Z,99510.48
2019-04-06T22:27:41.601Z,99515.73
2019-04-06T22:30:11.270Z,99514.45
2019-04-06T22:32:40.315Z,99514.50
2019-04-06T22:35:09.965Z,99510.51
2019-04-06T22:37:39.575Z,99508.77
2019-04-06T22:40:08.609Z,99507.43
2019-04-06T22:42:37.708Z,99508.09
2019-04-06T22:45:13.777Z,99498.75
2019-04-06T22:47:45.181Z,99509.23
2019-04-06T22:50:15.186Z,99509.23
2019-04-06T22:52:45.207Z,99513.48
2019-04-06T22:55:13.905Z,99514.68
2019-04-06T22:57:42.811Z,99508.91
2019-04-06T23:00:16.742Z,99511.02
2019-04-06T23:03:02.844Z,99511.80
2019-04-06T23:05:36.998Z,99515.99
2019-04-06T23:08:06.371Z,99512.70
2019-04-06T23:10:35.074Z,99516.61
2019-04-06T23:13:04.438Z,99511.03
2019-04-06T23:15:32.839Z,99510.70
2019-04-06T23:18:02.142Z,99511.52
2019-04-06T23:20:31.179Z,99509.39
2019-04-06T23:22:59.673Z,99515.47
2019-04-06T23:25:28.893Z,99510.79
2019-04-06T23:28:00.116Z,99516.61
2019-04-06T23:30:28.532Z,99521.38
2019-04-06T23:32:57.387Z,99519.88
2019-04-06T23:35:27.603Z,99518.18
2019-04-06T23:37:56.514Z,99518.59
2019-04-06T23:40:25.170Z,99513.83
2019-04-06T23:42:53.767Z,99517.47
2019-04-06T23:45:25.477Z,99515.77
2019-04-06T23:47:53.945Z,99519.73
2019-04-06T23:50:25.878Z,99521.22
2019-04-06T23:52:54.615Z,99518.50
2019-04-06T23:55:23.434Z,99518.88
2019-04-06T23:57:52.512Z,99522.34
